Wellsville, Ohio
Current Conditions -  °F | °C
As of 11:51 PM on Monday 22 Dec 2014 (Local Time) from KPIT Reporting Station
Overcast Overcast  
Wind Chill: 33°   Ceiling: 9500
Heat Index: 39°   Visibility: 10mi
Dew Point: 33°   Wind: 8mph
Humidity: 79%   Direction: 110°ESE
Pressure: 29.93"   Gusts: NA
Location:  40.6°N, 80.65°W
Report Text: KPIT 230451Z 11007KT 10SM FEW065 BKN095 OVC110 04/01 A2993 RMK AO2 SLP153 T00390006 400781050
Loading
Personal Weather Stations






























Interactive Weather Map New forecast layout! Learn more

10-Day Weather Forecast

Advertisements
Track Severe Weather on mobile